sensor_id;sensor_type;location;lat;lon;timestamp;temperature;humidity
8595;DHT22;4335;48.860;9.198;2022-09-23T00:01:21;9.50;99.90
8595;DHT22;4335;48.860;9.198;2022-09-23T00:03:48;9.40;99.90
8595;DHT22;4335;48.860;9.198;2022-09-23T00:06:19;9.50;99.90
8595;DHT22;4335;48.860;9.198;2022-09-23T00:08:47;9.50;99.90
8595;DHT22;4335;48.860;9.198;2022-09-23T00:11:15;9.50;99.90
8595;DHT22;4335;48.860;9.198;2022-09-23T00:13:44;9.50;99.90
8595;DHT22;4335;48.860;9.198;2022-09-23T00:16:13;9.40;99.90
8595;DHT22;4335;48.860;9.198;2022-09-23T00:18:41;9.40;99.90
8595;DHT22;4335;48.860;9.198;2022-09-23T00:21:23;9.40;99.90
8595;DHT22;4335;48.860;9.198;2022-09-23T00:23:51;9.30;99.90
8595;DHT22;4335;48.860;9.198;2022-09-23T00:26:19;9.30;99.90
8595;DHT22;4335;48.860;9.198;2022-09-23T00:28:46;9.30;99.90
8595;DHT22;4335;48.860;9.198;2022-09-23T00:31:15;9.30;99.90
8595;DHT22;4335;48.860;9.198;2022-09-23T00:33:45;9.30;99.90
8595;DHT22;4335;48.860;9.198;2022-09-23T00:36:15;9.30;99.90
8595;DHT22;4335;48.860;9.198;2022-09-23T00:38:42;9.20;99.90
8595;DHT22;4335;48.860;9.198;2022-09-23T00:41:10;9.20;99.90
8595;DHT22;4335;48.860;9.198;2022-09-23T00:43:41;9.20;99.90
8595;DHT22;4335;48.860;9.198;2022-09-23T00:46:12;9.20;99.90
8595;DHT22;4335;48.860;9.198;2022-09-23T00:48:45;9.20;99.90
8595;DHT22;4335;48.860;9.198;2022-09-23T00:51:19;9.10;99.90
8595;DHT22;4335;48.860;9.198;2022-09-23T00:53:49;9.10;99.90
8595;DHT22;4335;48.860;9.198;2022-09-23T00:56:19;9.10;99.90
8595;DHT22;4335;48.860;9.198;2022-09-23T00:58:48;9.10;99.90
8595;DHT22;4335;48.860;9.198;2022-09-23T01:01:16;9.10;99.90
8595;DHT22;4335;48.860;9.198;2022-09-23T01:03:44;9.10;99.90
8595;DHT22;4335;48.860;9.198;2022-09-23T01:06:17;9.00;99.90
8595;DHT22;4335;48.860;9.198;2022-09-23T01:08:45;9.00;99.90
8595;DHT22;4335;48.860;9.198;2022-09-23T01:11:29;8.90;99.90
8595;DHT22;4335;48.860;9.198;2022-09-23T01:14:19;8.90;99.90
8595;DHT22;4335;48.860;9.198;2022-09-23T01:16:57;8.90;99.90
8595;DHT22;4335;48.860;9.198;2022-09-23T01:19:45;8.90;99.90
8595;DHT22;4335;48.860;9.198;2022-09-23T01:22:31;8.90;99.90
8595;DHT22;4335;48.860;9.198;2022-09-23T01:25:20;8.90;99.90
8595;DHT22;4335;48.860;9.198;2022-09-23T01:27:59;8.80;99.90
8595;DHT22;4335;48.860;9.198;2022-09-23T01:30:46;8.80;99.90
8595;DHT22;4335;48.860;9.198;2022-09-23T01:33:19;8.80;99.90
8595;DHT22;4335;48.860;9.198;2022-09-23T01:35:57;8.80;99.90
8595;DHT22;4335;48.860;9.198;2022-09-23T01:38:34;8.80;99.90
8595;DHT22;4335;48.860;9.198;2022-09-23T01:41:06;8.80;99.90
8595;DHT22;4335;48.860;9.198;2022-09-23T01:43:41;8.80;99.90
8595;DHT22;4335;48.860;9.198;2022-09-23T01:46:17;8.70;99.90
8595;DHT22;4335;48.860;9.198;2022-09-23T01:48:50;8.70;99.90
8595;DHT22;4335;48.860;9.198;2022-09-23T01:51:22;8.70;99.90
8595;DHT22;4335;48.860;9.198;2022-09-23T01:53:56;8.60;99.90
8595;DHT22;4335;48.860;9.198;2022-09-23T01:56:34;8.60;99.90
8595;DHT22;4335;48.860;9.198;2022-09-23T01:59:09;8.60;99.90
8595;DHT22;4335;48.860;9.198;2022-09-23T02:01:41;8.60;99.90
8595;DHT22;4335;48.860;9.198;2022-09-23T02:04:15;8.60;99.90
8595;DHT22;4335;48.860;9.198;2022-09-23T02:06:56;8.50;99.90
8595;DHT22;4335;48.860;9.198;2022-09-23T02:09:28;8.50;99.90
8595;DHT22;4335;48.860;9.198;2022-09-23T02:12:02;8.50;99.90
8595;DHT22;4335;48.860;9.198;2022-09-23T02:14:35;8.50;99.90
8595;DHT22;4335;48.860;9.198;2022-09-23T02:17:08;8.50;99.90
8595;DHT22;4335;48.860;9.198;2022-09-23T02:19:41;8.50;99.90
8595;DHT22;4335;48.860;9.198;2022-09-23T02:22:14;8.50;99.90
8595;DHT22;4335;48.860;9.198;2022-09-23T02:24:42;8.40;99.90
8595;DHT22;4335;48.860;9.198;2022-09-23T02:27:16;8.40;99.90
8595;DHT22;4335;48.860;9.198;2022-09-23T02:29:49;8.40;99.90
8595;DHT22;4335;48.860;9.198;2022-09-23T02:32:27;8.40;99.90
8595;DHT22;4335;48.860;9.198;2022-09-23T02:35:00;8.40;99.90
8595;DHT22;4335;48.860;9.198;2022-09-23T02:37:38;8.30;99.90
8595;DHT22;4335;48.860;9.198;2022-09-23T02:40:12;8.30;99.90
8595;DHT22;4335;48.860;9.198;2022-09-23T02:42:47;8.30;99.90
8595;DHT22;4335;48.860;9.198;2022-09-23T02:45:16;8.30;99.90
8595;DHT22;4335;48.860;9.198;2022-09-23T02:47:47;8.30;99.90
8595;DHT22;4335;48.860;9.198;2022-09-23T02:50:14;8.30;99.90
8595;DHT22;4335;48.860;9.198;2022-09-23T02:52:42;8.30;99.90
8595;DHT22;4335;48.860;9.198;2022-09-23T02:55:11;8.30;99.90
8595;DHT22;4335;48.860;9.198;2022-09-23T02:57:43;8.20;99.90
8595;DHT22;4335;48.860;9.198;2022-09-23T03:00:11;8.20;99.90
8595;DHT22;4335;48.860;9.198;2022-09-23T03:02:55;8.20;99.90
8595;DHT22;4335;48.860;9.198;2022-09-23T03:05:27;8.20;99.90
8595;DHT22;4335;48.860;9.198;2022-09-23T03:08:10;8.10;99.90
8595;DHT22;4335;48.860;9.198;2022-09-23T03:10:53;8.10;99.90
8595;DHT22;4335;48.860;9.198;2022-09-23T03:13:28;8.10;99.90
8595;DHT22;4335;48.860;9.198;2022-09-23T03:16:00;8.10;99.90
8595;DHT22;4335;48.860;9.198;2022-09-23T03:18:38;8.10;99.90
8595;DHT22;4335;48.860;9.198;2022-09-23T03:21:08;8.10;99.90
8595;DHT22;4335;48.860;9.198;2022-09-23T03:23:39;8.00;99.90
8595;DHT22;4335;48.860;9.198;2022-09-23T03:26:09;8.00;99.90
8595;DHT22;4335;48.860;9.198;2022-09-23T03:28:41;8.00;99.90
8595;DHT22;4335;48.860;9.198;2022-09-23T03:31:18;8.00;99.90
8595;DHT22;4335;48.860;9.198;2022-09-23T03:33:48;7.90;99.90
8595;DHT22;4335;48.860;9.198;2022-09-23T03:36:20;8.00;99.90
8595;DHT22;4335;48.860;9.198;2022-09-23T03:39:11;7.90;99.90
8595;DHT22;4335;48.860;9.198;2022-09-23T03:41:45;7.90;99.90
8595;DHT22;4335;48.860;9.198;2022-09-23T03:44:16;7.90;99.90
8595;DHT22;4335;48.860;9.198;2022-09-23T03:46:43;7.90;99.90
8595;DHT22;4335;48.860;9.198;2022-09-23T03:49:24;7.90;99.90
8595;DHT22;4335;48.860;9.198;2022-09-23T03:51:52;7.80;99.90
8595;DHT22;4335;48.860;9.198;2022-09-23T03:54:19;7.80;99.90
8595;DHT22;4335;48.860;9.198;2022-09-23T03:56:46;7.80;99.90
8595;DHT22;4335;48.860;9.198;2022-09-23T03:59:16;7.80;99.90
8595;DHT22;4335;48.860;9.198;2022-09-23T04:01:43;7.80;99.90
8595;DHT22;4335;48.860;9.198;2022-09-23T04:04:13;7.80;99.90
8595;DHT22;4335;48.860;9.198;2022-09-23T04:06:43;7.80;99.90
8595;DHT22;4335;48.860;9.198;2022-09-23T04:09:10;7.80;99.90
8595;DHT22;4335;48.860;9.198;2022-09-23T04:11:37;7.80;99.90
8595;DHT22;4335;48.860;9.198;2022-09-23T04:14:04;7.80;99.90
8595;DHT22;4335;48.860;9.198;2022-09-23T04:16:31;7.80;99.90
8595;DHT22;4335;48.860;9.198;2022-09-23T04:18:59;7.70;99.90
8595;DHT22;4335;48.860;9.198;2022-09-23T04:21:26;7.70;99.90
8595;DHT22;4335;48.860;9.198;2022-09-23T04:24:03;7.70;99.90
8595;DHT22;4335;48.860;9.198;2022-09-23T04:26:40;7.70;99.90
8595;DHT22;4335;48.860;9.198;2022-09-23T04:29:09;7.70;99.90
8595;DHT22;4335;48.860;9.198;2022-09-23T04:31:37;7.70;99.90
8595;DHT22;4335;48.860;9.198;2022-09-23T04:34:04;7.70;99.90
8595;DHT22;4335;48.860;9.198;2022-09-23T04:36:30;7.70;99.90
8595;DHT22;4335;48.860;9.198;2022-09-23T04:38:58;7.70;99.90
8595;DHT22;4335;48.860;9.198;2022-09-23T04:41:25;7.70;99.90
8595;DHT22;4335;48.860;9.198;2022-09-23T04:43:54;7.70;99.90
8595;DHT22;4335;48.860;9.198;2022-09-23T04:46:22;7.70;99.90
8595;DHT22;4335;48.860;9.198;2022-09-23T04:48:49;7.60;99.90
8595;DHT22;4335;48.860;9.198;2022-09-23T04:51:20;7.60;99.90
8595;DHT22;4335;48.860;9.198;2022-09-23T04:53:48;7.60;99.90
8595;DHT22;4335;48.860;9.198;2022-09-23T04:56:21;7.70;99.90
8595;DHT22;4335;48.860;9.198;2022-09-23T04:58:48;7.80;99.90
8595;DHT22;4335;48.860;9.198;2022-09-23T05:01:16;7.80;99.90
8595;DHT22;4335;48.860;9.198;2022-09-23T05:03:46;7.90;99.90
8595;DHT22;4335;48.860;9.198;2022-09-23T05:06:13;8.00;99.90
8595;DHT22;4335;48.860;9.198;2022-09-23T05:08:41;8.00;99.90
8595;DHT22;4335;48.860;9.198;2022-09-23T05:11:14;8.10;99.90
8595;DHT22;4335;48.860;9.198;2022-09-23T05:13:45;8.10;99.90
8595;DHT22;4335;48.860;9.198;2022-09-23T05:16:15;8.20;99.90
8595;DHT22;4335;48.860;9.198;2022-09-23T05:18:47;8.20;99.90
8595;DHT22;4335;48.860;9.198;2022-09-23T05:21:21;8.30;99.90
8595;DHT22;4335;48.860;9.198;2022-09-23T05:23:53;8.40;99.90
8595;DHT22;4335;48.860;9.198;2022-09-23T05:26:21;8.60;99.90
8595;DHT22;4335;48.860;9.198;2022-09-23T05:28:52;8.80;99.90
8595;DHT22;4335;48.860;9.198;2022-09-23T05:31:20;9.20;99.90
8595;DHT22;4335;48.860;9.198;2022-09-23T05:33:55;9.60;99.90
8595;DHT22;4335;48.860;9.198;2022-09-23T05:36:23;10.10;99.90
8595;DHT22;4335;48.860;9.198;2022-09-23T05:38:52;10.60;99.90
8595;DHT22;4335;48.860;9.198;2022-09-23T05:41:21;11.00;99.90
8595;DHT22;4335;48.860;9.198;2022-09-23T05:43:48;11.40;99.90
8595;DHT22;4335;48.860;9.198;2022-09-23T05:46:21;11.60;99.90
8595;DHT22;4335;48.860;9.198;2022-09-23T05:48:51;11.90;99.90
8595;DHT22;4335;48.860;9.198;2022-09-23T05:51:20;12.20;99.90
8595;DHT22;4335;48.860;9.198;2022-09-23T05:53:54;12.50;99.90
8595;DHT22;4335;48.860;9.198;2022-09-23T05:56:32;12.70;99.90
8595;DHT22;4335;48.860;9.198;2022-09-23T05:59:03;13.00;99.90
8595;DHT22;4335;48.860;9.198;2022-09-23T06:01:32;13.40;99.90
8595;DHT22;4335;48.860;9.198;2022-09-23T06:04:00;13.70;99.90
8595;DHT22;4335;48.860;9.198;2022-09-23T06:06:35;13.90;99.90
8595;DHT22;4335;48.860;9.198;2022-09-23T06:09:03;14.30;99.90
8595;DHT22;4335;48.860;9.198;2022-09-23T06:11:30;14.50;99.90
8595;DHT22;4335;48.860;9.198;2022-09-23T06:13:58;14.90;99.90
8595;DHT22;4335;48.860;9.198;2022-09-23T06:16:26;15.30;99.90
8595;DHT22;4335;48.860;9.198;2022-09-23T06:18:56;15.70;99.90
8595;DHT22;4335;48.860;9.198;2022-09-23T06:21:31;16.00;99.90
8595;DHT22;4335;48.860;9.198;2022-09-23T06:23:58;16.60;99.90
8595;DHT22;4335;48.860;9.198;2022-09-23T06:26:28;17.20;99.90
8595;DHT22;4335;48.860;9.198;2022-09-23T06:29:02;17.40;99.90
8595;DHT22;4335;48.860;9.198;2022-09-23T06:31:37;17.90;99.90
8595;DHT22;4335;48.860;9.198;2022-09-23T06:34:07;18.20;99.90
8595;DHT22;4335;48.860;9.198;2022-09-23T06:36:37;18.80;99.90
8595;DHT22;4335;48.860;9.198;2022-09-23T06:39:04;19.40;99.90
8595;DHT22;4335;48.860;9.198;2022-09-23T06:41:31;19.00;99.90
8595;DHT22;4335;48.860;9.198;2022-09-23T06:43:57;18.20;99.90
8595;DHT22;4335;48.860;9.198;2022-09-23T06:46:30;17.50;99.90
8595;DHT22;4335;48.860;9.198;2022-09-23T06:48:59;16.70;99.90
8595;DHT22;4335;48.860;9.198;2022-09-23T06:51:27;15.90;99.90
8595;DHT22;4335;48.860;9.198;2022-09-23T06:53:54;15.30;99.90
8595;DHT22;4335;48.860;9.198;2022-09-23T06:56:21;14.80;99.90
8595;DHT22;4335;48.860;9.198;2022-09-23T06:58:49;14.40;99.90
8595;DHT22;4335;48.860;9.198;2022-09-23T07:01:17;14.00;99.90
8595;DHT22;4335;48.860;9.198;2022-09-23T07:03:45;13.80;99.90
8595;DHT22;4335;48.860;9.198;2022-09-23T07:06:17;13.50;99.90
8595;DHT22;4335;48.860;9.198;2022-09-23T07:08:45;13.40;99.90
8595;DHT22;4335;48.860;9.198;2022-09-23T07:11:16;13.30;99.90
8595;DHT22;4335;48.860;9.198;2022-09-23T07:13:47;13.20;99.90
8595;DHT22;4335;48.860;9.198;2022-09-23T07:16:13;13.10;99.90
8595;DHT22;4335;48.860;9.198;2022-09-23T07:18:40;13.00;99.90
8595;DHT22;4335;48.860;9.198;2022-09-23T07:21:08;13.00;99.90
8595;DHT22;4335;48.860;9.198;2022-09-23T07:23:36;13.10;99.90
8595;DHT22;4335;48.860;9.198;2022-09-23T07:26:06;13.10;99.90
8595;DHT22;4335;48.860;9.198;2022-09-23T07:28:34;13.20;99.90
8595;DHT22;4335;48.860;9.198;2022-09-23T07:31:03;13.30;99.90
8595;DHT22;4335;48.860;9.198;2022-09-23T07:33:35;13.50;99.90
8595;DHT22;4335;48.860;9.198;2022-09-23T07:36:06;13.50;99.90
8595;DHT22;4335;48.860;9.198;2022-09-23T07:38:36;13.70;99.90
8595;DHT22;4335;48.860;9.198;2022-09-23T07:41:06;13.70;99.90
8595;DHT22;4335;48.860;9.198;2022-09-23T07:43:33;13.70;99.90
8595;DHT22;4335;48.860;9.198;2022-09-23T07:46:01;13.90;99.90
8595;DHT22;4335;48.860;9.198;2022-09-23T07:48:32;13.90;99.90
8595;DHT22;4335;48.860;9.198;2022-09-23T07:51:15;14.00;99.90
8595;DHT22;4335;48.860;9.198;2022-09-23T07:53:46;14.00;99.90
8595;DHT22;4335;48.860;9.198;2022-09-23T07:56:14;14.10;99.90
8595;DHT22;4335;48.860;9.198;2022-09-23T07:58:42;14.10;99.90
8595;DHT22;4335;48.860;9.198;2022-09-23T08:01:09;14.00;99.90
8595;DHT22;4335;48.860;9.198;2022-09-23T08:03:39;14.10;99.90
8595;DHT22;4335;48.860;9.198;2022-09-23T08:06:07;14.20;99.90
8595;DHT22;4335;48.860;9.198;2022-09-23T08:08:34;14.30;99.90
8595;DHT22;4335;48.860;9.198;2022-09-23T08:11:06;14.30;99.90
8595;DHT22;4335;48.860;9.198;2022-09-23T08:13:39;14.40;99.90
8595;DHT22;4335;48.860;9.198;2022-09-23T08:16:06;14.40;99.90
8595;DHT22;4335;48.860;9.198;2022-09-23T08:18:33;14.60;99.90
8595;DHT22;4335;48.860;9.198;2022-09-23T08:21:00;14.70;99.90
8595;DHT22;4335;48.860;9.198;2022-09-23T08:23:30;14.80;99.90
8595;DHT22;4335;48.860;9.198;2022-09-23T08:26:03;15.00;99.90
8595;DHT22;4335;48.860;9.198;2022-09-23T08:28:29;15.10;99.90
8595;DHT22;4335;48.860;9.198;2022-09-23T08:31:06;15.20;99.90
8595;DHT22;4335;48.860;9.198;2022-09-23T08:33:42;15.30;99.90
8595;DHT22;4335;48.860;9.198;2022-09-23T08:36:09;15.50;99.90
8595;DHT22;4335;48.860;9.198;2022-09-23T08:38:36;15.70;99.90
8595;DHT22;4335;48.860;9.198;2022-09-23T08:41:07;15.70;99.90
8595;DHT22;4335;48.860;9.198;2022-09-23T08:43:42;15.90;99.90
8595;DHT22;4335;48.860;9.198;2022-09-23T08:46:11;15.90;99.90
8595;DHT22;4335;48.860;9.198;2022-09-23T08:48:43;16.00;99.90
8595;DHT22;4335;48.860;9.198;2022-09-23T08:51:18;16.00;99.90
8595;DHT22;4335;48.860;9.198;2022-09-23T08:53:51;16.00;99.90
8595;DHT22;4335;48.860;9.198;2022-09-23T08:56:20;16.10;99.90
8595;DHT22;4335;48.860;9.198;2022-09-23T08:58:54;16.20;99.90
8595;DHT22;4335;48.860;9.198;2022-09-23T09:01:32;16.20;99.90
8595;DHT22;4335;48.860;9.198;2022-09-23T09:04:01;16.40;99.90
8595;DHT22;4335;48.860;9.198;2022-09-23T09:06:38;16.50;99.90
8595;DHT22;4335;48.860;9.198;2022-09-23T09:09:12;16.70;99.90
8595;DHT22;4335;48.860;9.198;2022-09-23T09:11:45;16.70;99.90
8595;DHT22;4335;48.860;9.198;2022-09-23T09:14:28;16.80;99.90
8595;DHT22;4335;48.860;9.198;2022-09-23T09:17:13;16.80;99.90
8595;DHT22;4335;48.860;9.198;2022-09-23T09:19:53;16.90;99.90
8595;DHT22;4335;48.860;9.198;2022-09-23T09:22:36;17.00;99.90
8595;DHT22;4335;48.860;9.198;2022-09-23T09:25:16;17.00;99.90
8595;DHT22;4335;48.860;9.198;2022-09-23T09:27:43;17.00;99.90
8595;DHT22;4335;48.860;9.198;2022-09-23T09:30:12;17.00;99.90
8595;DHT22;4335;48.860;9.198;2022-09-23T09:32:43;16.90;99.90
8595;DHT22;4335;48.860;9.198;2022-09-23T09:35:23;17.00;99.90
8595;DHT22;4335;48.860;9.198;2022-09-23T09:37:52;17.30;99.90
8595;DHT22;4335;48.860;9.198;2022-09-23T09:40:19;17.80;99.90
8595;DHT22;4335;48.860;9.198;2022-09-23T09:42:47;18.90;99.90
8595;DHT22;4335;48.860;9.198;2022-09-23T09:45:22;20.10;99.90
8595;DHT22;4335;48.860;9.198;2022-09-23T09:48:03;21.40;99.90
8595;DHT22;4335;48.860;9.198;2022-09-23T09:50:43;22.50;96.90
8595;DHT22;4335;48.860;9.198;2022-09-23T09:53:22;23.90;94.20
8595;DHT22;4335;48.860;9.198;2022-09-23T09:56:02;24.60;90.70
8595;DHT22;4335;48.860;9.198;2022-09-23T09:58:34;25.70;87.70
8595;DHT22;4335;48.860;9.198;2022-09-23T10:01:16;26.70;81.20
8595;DHT22;4335;48.860;9.198;2022-09-23T10:03:44;27.50;76.50
8595;DHT22;4335;48.860;9.198;2022-09-23T10:06:20;28.90;71.90
8595;DHT22;4335;48.860;9.198;2022-09-23T10:09:03;29.60;65.90
8595;DHT22;4335;48.860;9.198;2022-09-23T10:11:31;30.10;62.90
8595;DHT22;4335;48.860;9.198;2022-09-23T10:14:04;30.90;59.80
8595;DHT22;4335;48.860;9.198;2022-09-23T10:16:34;30.70;57.40
8595;DHT22;4335;48.860;9.198;2022-09-23T10:19:02;30.60;56.50
8595;DHT22;4335;48.860;9.198;2022-09-23T10:21:42;30.90;56.00
8595;DHT22;4335;48.860;9.198;2022-09-23T10:24:20;31.80;54.80
8595;DHT22;4335;48.860;9.198;2022-09-23T10:26:52;32.00;53.70
8595;DHT22;4335;48.860;9.198;2022-09-23T10:29:23;32.10;53.30
8595;DHT22;4335;48.860;9.198;2022-09-23T10:32:16;31.90;53.20
8595;DHT22;4335;48.860;9.198;2022-09-23T10:34:46;31.60;53.00
8595;DHT22;4335;48.860;9.198;2022-09-23T10:37:19;30.90;52.80
8595;DHT22;4335;48.860;9.198;2022-09-23T10:39:53;30.50;53.70
8595;DHT22;4335;48.860;9.198;2022-09-23T10:42:50;30.60;54.00
8595;DHT22;4335;48.860;9.198;2022-09-23T10:45:38;30.30;53.30
8595;DHT22;4335;48.860;9.198;2022-09-23T10:48:38;30.50;53.30
8595;DHT22;4335;48.860;9.198;2022-09-23T10:51:14;30.60;53.00
8595;DHT22;4335;48.860;9.198;2022-09-23T10:53:54;30.60;53.10
8595;DHT22;4335;48.860;9.198;2022-09-23T10:56:30;30.50;52.60
8595;DHT22;4335;48.860;9.198;2022-09-23T10:59:47;29.40;53.20
8595;DHT22;4335;48.860;9.198;2022-09-23T11:02:41;28.10;55.30
8595;DHT22;4335;48.860;9.198;2022-09-23T11:05:36;26.60;57.70
8595;DHT22;4335;48.860;9.198;2022-09-23T11:08:18;25.50;60.00
8595;DHT22;4335;48.860;9.198;2022-09-23T11:11:07;24.70;62.50
8595;DHT22;4335;48.860;9.198;2022-09-23T11:13:47;23.90;64.50
8595;DHT22;4335;48.860;9.198;2022-09-23T11:16:34;23.20;66.50
8595;DHT22;4335;48.860;9.198;2022-09-23T11:19:25;22.30;69.30
8595;DHT22;4335;48.860;9.198;2022-09-23T11:22:28;21.80;72.30
8595;DHT22;4335;48.860;9.198;2022-09-23T11:25:16;21.10;75.00
8595;DHT22;4335;48.860;9.198;2022-09-23T11:27:58;20.80;77.50
8595;DHT22;4335;48.860;9.198;2022-09-23T11:30:37;20.30;80.60
8595;DHT22;4335;48.860;9.198;2022-09-23T11:33:18;20.10;83.20
8595;DHT22;4335;48.860;9.198;2022-09-23T11:35:51;19.80;84.50
8595;DHT22;4335;48.860;9.198;2022-09-23T11:38:26;19.60;86.70
8595;DHT22;4335;48.860;9.198;2022-09-23T11:41:12;19.40;88.60
8595;DHT22;4335;48.860;9.198;2022-09-23T11:43:41;19.40;90.10
8595;DHT22;4335;48.860;9.198;2022-09-23T11:46:14;19.20;90.90
8595;DHT22;4335;48.860;9.198;2022-09-23T11:48:48;19.10;91.60
8595;DHT22;4335;48.860;9.198;2022-09-23T11:51:21;19.00;92.50
8595;DHT22;4335;48.860;9.198;2022-09-23T11:53:56;18.90;93.60
8595;DHT22;4335;48.860;9.198;2022-09-23T11:56:29;18.80;94.30
8595;DHT22;4335;48.860;9.198;2022-09-23T11:58:59;18.80;94.90
8595;DHT22;4335;48.860;9.198;2022-09-23T12:01:33;18.70;95.40
8595;DHT22;4335;48.860;9.198;2022-09-23T12:04:06;18.70;95.70
8595;DHT22;4335;48.860;9.198;2022-09-23T12:06:40;18.70;96.20
8595;DHT22;4335;48.860;9.198;2022-09-23T12:09:19;18.60;96.70
8595;DHT22;4335;48.860;9.198;2022-09-23T12:11:52;18.70;97.10
8595;DHT22;4335;48.860;9.198;2022-09-23T12:14:26;18.60;97.40
8595;DHT22;4335;48.860;9.198;2022-09-23T12:17:06;18.50;97.90
8595;DHT22;4335;48.860;9.198;2022-09-23T12:23:04;18.30;98.60
8595;DHT22;4335;48.860;9.198;2022-09-23T12:25:42;18.30;98.80
8595;DHT22;4335;48.860;9.198;2022-09-23T12:28:15;18.30;98.80
8595;DHT22;4335;48.860;9.198;2022-09-23T12:30:44;18.40;98.70
8595;DHT22;4335;48.860;9.198;2022-09-23T12:33:21;18.40;98.40
8595;DHT22;4335;48.860;9.198;2022-09-23T12:35:51;18.40;98.40
8595;DHT22;4335;48.860;9.198;2022-09-23T12:38:20;18.40;98.70
8595;DHT22;4335;48.860;9.198;2022-09-23T12:40:51;18.30;99.10
8595;DHT22;4335;48.860;9.198;2022-09-23T12:43:29;18.30;99.70
8595;DHT22;4335;48.860;9.198;2022-09-23T12:46:15;18.40;99.90
8595;DHT22;4335;48.860;9.198;2022-09-23T12:48:44;18.30;99.90
8595;DHT22;4335;48.860;9.198;2022-09-23T12:51:16;18.40;99.90
8595;DHT22;4335;48.860;9.198;2022-09-23T12:53:54;18.40;99.90
8595;DHT22;4335;48.860;9.198;2022-09-23T12:56:27;18.30;99.90
8595;DHT22;4335;48.860;9.198;2022-09-23T12:59:20;18.20;99.90
8595;DHT22;4335;48.860;9.198;2022-09-23T13:01:53;18.10;99.90
8595;DHT22;4335;48.860;9.198;2022-09-23T13:04:42;18.20;99.90
8595;DHT22;4335;48.860;9.198;2022-09-23T13:07:28;18.20;99.90
8595;DHT22;4335;48.860;9.198;2022-09-23T13:10:05;18.20;99.90
8595;DHT22;4335;48.860;9.198;2022-09-23T13:12:37;18.10;99.90
8595;DHT22;4335;48.860;9.198;2022-09-23T13:15:16;18.10;99.90
8595;DHT22;4335;48.860;9.198;2022-09-23T13:17:45;18.20;99.90
8595;DHT22;4335;48.860;9.198;2022-09-23T13:20:33;18.20;99.90
8595;DHT22;4335;48.860;9.198;2022-09-23T13:23:22;18.20;99.90
8595;DHT22;4335;48.860;9.198;2022-09-23T13:25:50;18.20;99.90
8595;DHT22;4335;48.860;9.198;2022-09-23T13:28:33;18.30;99.90
8595;DHT22;4335;48.860;9.198;2022-09-23T13:31:14;18.30;99.90
8595;DHT22;4335;48.860;9.198;2022-09-23T13:33:47;18.30;99.90
8595;DHT22;4335;48.860;9.198;2022-09-23T13:36:18;18.30;99.90
8595;DHT22;4335;48.860;9.198;2022-09-23T13:38:46;18.30;99.90
8595;DHT22;4335;48.860;9.198;2022-09-23T13:41:18;18.30;99.90
8595;DHT22;4335;48.860;9.198;2022-09-23T13:43:47;18.30;99.90
8595;DHT22;4335;48.860;9.198;2022-09-23T13:46:20;18.20;99.90
8595;DHT22;4335;48.860;9.198;2022-09-23T13:48:52;18.30;99.90
8595;DHT22;4335;48.860;9.198;2022-09-23T13:51:22;18.30;99.90
8595;DHT22;4335;48.860;9.198;2022-09-23T13:53:54;18.40;99.90
8595;DHT22;4335;48.860;9.198;2022-09-23T13:56:22;18.40;99.90
8595;DHT22;4335;48.860;9.198;2022-09-23T13:58:49;18.50;99.90
8595;DHT22;4335;48.860;9.198;2022-09-23T14:01:28;18.50;99.90
8595;DHT22;4335;48.860;9.198;2022-09-23T14:03:54;18.60;99.90
8595;DHT22;4335;48.860;9.198;2022-09-23T14:06:21;18.70;99.90
8595;DHT22;4335;48.860;9.198;2022-09-23T14:08:49;18.60;99.90
8595;DHT22;4335;48.860;9.198;2022-09-23T14:11:16;18.60;99.90
8595;DHT22;4335;48.860;9.198;2022-09-23T14:13:45;18.70;99.90
8595;DHT22;4335;48.860;9.198;2022-09-23T14:16:20;18.70;99.90
8595;DHT22;4335;48.860;9.198;2022-09-23T14:18:49;18.90;99.90
8595;DHT22;4335;48.860;9.198;2022-09-23T14:21:28;18.90;99.90
8595;DHT22;4335;48.860;9.198;2022-09-23T14:24:17;18.80;99.90
8595;DHT22;4335;48.860;9.198;2022-09-23T14:26:46;18.70;99.90
8595;DHT22;4335;48.860;9.198;2022-09-23T14:29:22;18.70;99.90
8595;DHT22;4335;48.860;9.198;2022-09-23T14:31:53;18.80;99.90
8595;DHT22;4335;48.860;9.198;2022-09-23T14:34:44;18.80;99.90
8595;DHT22;4335;48.860;9.198;2022-09-23T14:37:28;18.90;99.90
8595;DHT22;4335;48.860;9.198;2022-09-23T14:40:17;18.80;99.90
8595;DHT22;4335;48.860;9.198;2022-09-23T14:42:46;18.90;99.90
8595;DHT22;4335;48.860;9.198;2022-09-23T14:45:32;19.00;99.90
8595;DHT22;4335;48.860;9.198;2022-09-23T14:48:05;19.00;99.90
8595;DHT22;4335;48.860;9.198;2022-09-23T14:50:43;19.00;99.90
8595;DHT22;4335;48.860;9.198;2022-09-23T14:53:37;19.00;99.90
8595;DHT22;4335;48.860;9.198;2022-09-23T14:56:13;19.00;99.90
8595;DHT22;4335;48.860;9.198;2022-09-23T14:58:46;18.90;99.90
8595;DHT22;4335;48.860;9.198;2022-09-23T15:01:36;18.80;99.90
8595;DHT22;4335;48.860;9.198;2022-09-23T15:04:15;18.70;99.90
8595;DHT22;4335;48.860;9.198;2022-09-23T15:06:47;18.50;99.90
8595;DHT22;4335;48.860;9.198;2022-09-23T15:09:23;18.50;99.90
8595;DHT22;4335;48.860;9.198;2022-09-23T15:11:52;18.40;99.90
8595;DHT22;4335;48.860;9.198;2022-09-23T15:14:19;18.40;99.90
8595;DHT22;4335;48.860;9.198;2022-09-23T15:16:46;18.30;99.90
8595;DHT22;4335;48.860;9.198;2022-09-23T15:19:25;18.30;99.90
8595;DHT22;4335;48.860;9.198;2022-09-23T15:21:59;18.30;99.90
8595;DHT22;4335;48.860;9.198;2022-09-23T15:24:40;18.20;99.90
8595;DHT22;4335;48.860;9.198;2022-09-23T15:27:30;18.30;99.90
8595;DHT22;4335;48.860;9.198;2022-09-23T15:30:09;18.30;99.90
8595;DHT22;4335;48.860;9.198;2022-09-23T15:32:39;18.20;99.90
8595;DHT22;4335;48.860;9.198;2022-09-23T15:35:10;18.10;99.90
8595;DHT22;4335;48.860;9.198;2022-09-23T15:37:39;18.10;99.90
8595;DHT22;4335;48.860;9.198;2022-09-23T15:40:13;18.00;99.90
8595;DHT22;4335;48.860;9.198;2022-09-23T15:42:44;18.00;99.90
8595;DHT22;4335;48.860;9.198;2022-09-23T15:45:16;18.00;99.90
8595;DHT22;4335;48.860;9.198;2022-09-23T15:47:47;17.90;99.90
8595;DHT22;4335;48.860;9.198;2022-09-23T15:50:14;17.90;99.90
8595;DHT22;4335;48.860;9.198;2022-09-23T15:52:41;17.90;99.90
8595;DHT22;4335;48.860;9.198;2022-09-23T15:55:17;17.90;99.90
8595;DHT22;4335;48.860;9.198;2022-09-23T15:57:54;17.80;99.90
8595;DHT22;4335;48.860;9.198;2022-09-23T16:00:24;17.80;99.90
8595;DHT22;4335;48.860;9.198;2022-09-23T16:02:51;17.70;99.90
8595;DHT22;4335;48.860;9.198;2022-09-23T16:05:23;17.60;99.90
8595;DHT22;4335;48.860;9.198;2022-09-23T16:07:51;17.60;99.90
8595;DHT22;4335;48.860;9.198;2022-09-23T16:10:20;17.50;99.90
8595;DHT22;4335;48.860;9.198;2022-09-23T16:12:48;17.50;99.90
8595;DHT22;4335;48.860;9.198;2022-09-23T16:15:17;17.40;99.90
8595;DHT22;4335;48.860;9.198;2022-09-23T16:17:44;17.40;99.90
8595;DHT22;4335;48.860;9.198;2022-09-23T16:20:12;17.40;99.90
8595;DHT22;4335;48.860;9.198;2022-09-23T16:22:43;17.40;99.90
8595;DHT22;4335;48.860;9.198;2022-09-23T16:25:16;17.30;99.90
8595;DHT22;4335;48.860;9.198;2022-09-23T16:27:58;17.30;99.90
8595;DHT22;4335;48.860;9.198;2022-09-23T16:30:32;17.20;99.90
8595;DHT22;4335;48.860;9.198;2022-09-23T16:32:59;17.20;99.90
8595;DHT22;4335;48.860;9.198;2022-09-23T16:35:27;17.10;99.90
8595;DHT22;4335;48.860;9.198;2022-09-23T16:37:55;17.10;99.90
8595;DHT22;4335;48.860;9.198;2022-09-23T16:40:26;17.10;99.90
8595;DHT22;4335;48.860;9.198;2022-09-23T16:42:55;17.00;99.90
8595;DHT22;4335;48.860;9.198;2022-09-23T16:45:23;17.00;99.90
8595;DHT22;4335;48.860;9.198;2022-09-23T16:47:50;16.90;99.90
8595;DHT22;4335;48.860;9.198;2022-09-23T16:50:21;16.80;99.90